sensor_id;sensor_type;location;lat;lon;timestamp;P1;durP1;ratioP1;P2;durP2;ratioP2
77164;SDS011;66140;50.280;18.660;2023-03-20T05:02:40;23.40;;;11.48;;
77164;SDS011;66140;50.280;18.660;2023-03-20T05:05:05;21.58;;;11.57;;
77164;SDS011;66140;50.280;18.660;2023-03-20T05:07:31;25.50;;;11.95;;
77164;SDS011;66140;50.280;18.660;2023-03-20T05:09:57;23.00;;;12.30;;
77164;SDS011;66140;50.280;18.660;2023-03-20T05:12:23;21.13;;;11.50;;
77164;SDS011;66140;50.280;18.660;2023-03-20T05:14:49;23.55;;;12.88;;
77164;SDS011;66140;50.280;18.660;2023-03-20T05:17:15;23.00;;;12.07;;
77164;SDS011;66140;50.280;18.660;2023-03-20T05:19:42;21.80;;;12.15;;
77164;SDS011;66140;50.280;18.660;2023-03-20T05:22:08;23.42;;;12.63;;
77164;SDS011;66140;50.280;18.660;2023-03-20T05:24:34;23.30;;;11.90;;
77164;SDS011;66140;50.280;18.660;2023-03-20T05:26:59;22.83;;;11.50;;
77164;SDS011;66140;50.280;18.660;2023-03-20T05:29:25;21.17;;;11.45;;
77164;SDS011;66140;50.280;18.660;2023-03-20T05:31:50;20.45;;;10.43;;
77164;SDS011;66140;50.280;18.660;2023-03-20T05:34:16;18.77;;;11.55;;
77164;SDS011;66140;50.280;18.660;2023-03-20T05:36:41;20.67;;;11.13;;
77164;SDS011;66140;50.280;18.660;2023-03-20T05:39:07;22.50;;;11.60;;
77164;SDS011;66140;50.280;18.660;2023-03-20T05:41:32;24.60;;;12.13;;
77164;SDS011;66140;50.280;18.660;2023-03-20T05:43:58;24.70;;;12.52;;
77164;SDS011;66140;50.280;18.660;2023-03-20T05:46:23;25.13;;;13.52;;
77164;SDS011;66140;50.280;18.660;2023-03-20T05:48:50;22.13;;;12.18;;
77164;SDS011;66140;50.280;18.660;2023-03-20T05:51:15;18.85;;;11.88;;
77164;SDS011;66140;50.280;18.660;2023-03-20T05:53:40;23.55;;;12.70;;
77164;SDS011;66140;50.280;18.660;2023-03-20T05:56:06;22.77;;;12.35;;
77164;SDS011;66140;50.280;18.660;2023-03-20T05:58:32;22.40;;;13.32;;
77164;SDS011;66140;50.280;18.660;2023-03-20T06:00:59;24.60;;;14.32;;
77164;SDS011;66140;50.280;18.660;2023-03-20T06:03:24;27.15;;;13.82;;
77164;SDS011;66140;50.280;18.660;2023-03-20T06:05:49;24.27;;;14.13;;
77164;SDS011;66140;50.280;18.660;2023-03-20T06:08:15;23.60;;;12.75;;
77164;SDS011;66140;50.280;18.660;2023-03-20T06:10:40;24.13;;;14.18;;
77164;SDS011;66140;50.280;18.660;2023-03-20T06:13:06;22.27;;;13.18;;
77164;SDS011;66140;50.280;18.660;2023-03-20T06:15:31;25.63;;;13.23;;
77164;SDS011;66140;50.280;18.660;2023-03-20T06:17:58;35.10;;;15.85;;
77164;SDS011;66140;50.280;18.660;2023-03-20T06:20:24;27.35;;;13.48;;
77164;SDS011;66140;50.280;18.660;2023-03-20T06:22:50;27.70;;;13.80;;
77164;SDS011;66140;50.280;18.660;2023-03-20T06:25:16;26.90;;;14.35;;
77164;SDS011;66140;50.280;18.660;2023-03-20T06:27:42;27.52;;;14.20;;
77164;SDS011;66140;50.280;18.660;2023-03-20T06:30:11;26.48;;;13.85;;
77164;SDS011;66140;50.280;18.660;2023-03-20T06:32:36;30.35;;;14.90;;
77164;SDS011;66140;50.280;18.660;2023-03-20T06:35:02;27.77;;;13.68;;
77164;SDS011;66140;50.280;18.660;2023-03-20T06:37:29;30.90;;;14.15;;
77164;SDS011;66140;50.280;18.660;2023-03-20T06:39:56;26.13;;;14.45;;
77164;SDS011;66140;50.280;18.660;2023-03-20T06:42:21;27.55;;;14.60;;
77164;SDS011;66140;50.280;18.660;2023-03-20T06:44:46;28.83;;;16.17;;
77164;SDS011;66140;50.280;18.660;2023-03-20T06:47:12;30.33;;;17.13;;
77164;SDS011;66140;50.280;18.660;2023-03-20T06:49:37;33.47;;;16.80;;
77164;SDS011;66140;50.280;18.660;2023-03-20T06:52:03;29.88;;;16.40;;
77164;SDS011;66140;50.280;18.660;2023-03-20T06:54:29;30.45;;;16.48;;
77164;SDS011;66140;50.280;18.660;2023-03-20T06:56:54;28.67;;;16.13;;
77164;SDS011;66140;50.280;18.660;2023-03-20T06:59:20;28.80;;;15.38;;
77164;SDS011;66140;50.280;18.660;2023-03-20T07:01:45;27.17;;;15.98;;
77164;SDS011;66140;50.280;18.660;2023-03-20T07:04:11;29.42;;;15.75;;
77164;SDS011;66140;50.280;18.660;2023-03-20T07:06:36;28.00;;;16.05;;
77164;SDS011;66140;50.280;18.660;2023-03-20T07:09:02;32.47;;;16.17;;
77164;SDS011;66140;50.280;18.660;2023-03-20T07:11:29;29.92;;;17.35;;
77164;SDS011;66140;50.280;18.660;2023-03-20T07:13:55;31.75;;;16.08;;
77164;SDS011;66140;50.280;18.660;2023-03-20T07:16:20;31.65;;;16.92;;
77164;SDS011;66140;50.280;18.660;2023-03-20T07:18:46;34.33;;;17.55;;
77164;SDS011;66140;50.280;18.660;2023-03-20T07:21:13;31.38;;;16.88;;
77164;SDS011;66140;50.280;18.660;2023-03-20T07:23:43;30.98;;;16.50;;
77164;SDS011;66140;50.280;18.660;2023-03-20T07:26:09;32.03;;;16.73;;
77164;SDS011;66140;50.280;18.660;2023-03-20T07:28:43;25.67;;;15.23;;
77164;SDS011;66140;50.280;18.660;2023-03-20T07:31:15;29.75;;;16.38;;
77164;SDS011;66140;50.280;18.660;2023-03-20T07:33:47;26.08;;;14.70;;
77164;SDS011;66140;50.280;18.660;2023-03-20T07:36:12;29.08;;;15.20;;
77164;SDS011;66140;50.280;18.660;2023-03-20T07:38:38;28.95;;;16.55;;
77164;SDS011;66140;50.280;18.660;2023-03-20T07:41:03;28.23;;;17.33;;
77164;SDS011;66140;50.280;18.660;2023-03-20T07:43:29;30.98;;;16.77;;
77164;SDS011;66140;50.280;18.660;2023-03-20T07:45:54;27.80;;;15.05;;
77164;SDS011;66140;50.280;18.660;2023-03-20T07:48:19;27.25;;;15.65;;
77164;SDS011;66140;50.280;18.660;2023-03-20T07:50:45;26.25;;;15.82;;
77164;SDS011;66140;50.280;18.660;2023-03-20T07:53:10;27.30;;;16.30;;
77164;SDS011;66140;50.280;18.660;2023-03-20T07:55:36;30.42;;;16.25;;
77164;SDS011;66140;50.280;18.660;2023-03-20T07:58:03;17.95;;;11.30;;
77164;SDS011;66140;50.280;18.660;2023-03-20T08:00:28;26.83;;;14.90;;
77164;SDS011;66140;50.280;18.660;2023-03-20T08:02:55;26.27;;;15.25;;
77164;SDS011;66140;50.280;18.660;2023-03-20T08:05:21;25.35;;;14.45;;
77164;SDS011;66140;50.280;18.660;2023-03-20T08:07:47;28.17;;;15.07;;
77164;SDS011;66140;50.280;18.660;2023-03-20T08:10:13;29.40;;;15.07;;
77164;SDS011;66140;50.280;18.660;2023-03-20T08:12:38;27.65;;;15.93;;
77164;SDS011;66140;50.280;18.660;2023-03-20T08:15:04;28.90;;;16.23;;
77164;SDS011;66140;50.280;18.660;2023-03-20T08:17:30;25.50;;;14.95;;
77164;SDS011;66140;50.280;18.660;2023-03-20T08:19:56;29.00;;;14.85;;
77164;SDS011;66140;50.280;18.660;2023-03-20T08:22:22;27.08;;;15.15;;
77164;SDS011;66140;50.280;18.660;2023-03-20T08:24:51;30.75;;;15.35;;
77164;SDS011;66140;50.280;18.660;2023-03-20T08:27:16;26.08;;;15.07;;
77164;SDS011;66140;50.280;18.660;2023-03-20T08:29:42;31.30;;;15.93;;
77164;SDS011;66140;50.280;18.660;2023-03-20T08:32:07;31.55;;;16.27;;
77164;SDS011;66140;50.280;18.660;2023-03-20T08:34:33;28.30;;;15.38;;
77164;SDS011;66140;50.280;18.660;2023-03-20T08:36:59;32.40;;;16.02;;
77164;SDS011;66140;50.280;18.660;2023-03-20T08:39:27;34.03;;;17.20;;
77164;SDS011;66140;50.280;18.660;2023-03-20T08:41:52;28.27;;;15.85;;
77164;SDS011;66140;50.280;18.660;2023-03-20T08:44:18;29.08;;;15.63;;
77164;SDS011;66140;50.280;18.660;2023-03-20T08:46:46;26.42;;;14.73;;
77164;SDS011;66140;50.280;18.660;2023-03-20T08:49:11;28.95;;;15.38;;
77164;SDS011;66140;50.280;18.660;2023-03-20T08:51:37;30.30;;;15.40;;
77164;SDS011;66140;50.280;18.660;2023-03-20T08:54:02;27.10;;;15.68;;
77164;SDS011;66140;50.280;18.660;2023-03-20T08:56:28;31.58;;;15.95;;
77164;SDS011;66140;50.280;18.660;2023-03-20T08:58:53;29.80;;;16.15;;
77164;SDS011;66140;50.280;18.660;2023-03-20T09:01:19;13.70;;;9.88;;
77164;SDS011;66140;50.280;18.660;2023-03-20T09:03:45;30.38;;;14.85;;
77164;SDS011;66140;50.280;18.660;2023-03-20T09:06:11;25.50;;;15.45;;
77164;SDS011;66140;50.280;18.660;2023-03-20T09:08:36;23.40;;;14.00;;
77164;SDS011;66140;50.280;18.660;2023-03-20T09:11:02;25.85;;;13.10;;
77164;SDS011;66140;50.280;18.660;2023-03-20T09:13:28;21.25;;;12.82;;
77164;SDS011;66140;50.280;18.660;2023-03-20T09:15:54;24.77;;;13.13;;
77164;SDS011;66140;50.280;18.660;2023-03-20T09:18:20;22.80;;;12.70;;
77164;SDS011;66140;50.280;18.660;2023-03-20T09:20:46;20.08;;;12.75;;
77164;SDS011;66140;50.280;18.660;2023-03-20T09:23:12;20.58;;;13.65;;
77164;SDS011;66140;50.280;18.660;2023-03-20T09:25:37;22.77;;;14.18;;
77164;SDS011;66140;50.280;18.660;2023-03-20T09:28:03;24.83;;;14.15;;
77164;SDS011;66140;50.280;18.660;2023-03-20T09:30:28;23.15;;;13.13;;
77164;SDS011;66140;50.280;18.660;2023-03-20T09:32:54;24.23;;;12.98;;
77164;SDS011;66140;50.280;18.660;2023-03-20T09:35:19;19.40;;;13.75;;
77164;SDS011;66140;50.280;18.660;2023-03-20T09:37:45;24.33;;;13.55;;
77164;SDS011;66140;50.280;18.660;2023-03-20T09:40:19;23.73;;;13.60;;
77164;SDS011;66140;50.280;18.660;2023-03-20T09:42:58;22.92;;;13.38;;
77164;SDS011;66140;50.280;18.660;2023-03-20T09:45:59;21.63;;;13.60;;
77164;SDS011;66140;50.280;18.660;2023-03-20T09:53:48;26.40;;;14.60;;
77164;SDS011;66140;50.280;18.660;2023-03-20T09:56:20;24.55;;;14.80;;
77164;SDS011;66140;50.280;18.660;2023-03-20T09:58:53;18.88;;;12.45;;
77164;SDS011;66140;50.280;18.660;2023-03-20T10:01:21;21.88;;;13.23;;
77164;SDS011;66140;50.280;18.660;2023-03-20T10:03:52;24.23;;;14.52;;
77164;SDS011;66140;50.280;18.660;2023-03-20T10:06:21;21.02;;;12.45;;
77164;SDS011;66140;50.280;18.660;2023-03-20T10:08:47;19.73;;;12.93;;
77164;SDS011;66140;50.280;18.660;2023-03-20T10:14:20;21.48;;;13.43;;
77164;SDS011;66140;50.280;18.660;2023-03-20T10:25:25;22.20;;;12.88;;
77164;SDS011;66140;50.280;18.660;2023-03-20T10:28:09;20.70;;;12.10;;
77164;SDS011;66140;50.280;18.660;2023-03-20T10:33:24;22.50;;;12.80;;
77164;SDS011;66140;50.280;18.660;2023-03-20T10:40:56;18.98;;;11.27;;
77164;SDS011;66140;50.280;18.660;2023-03-20T10:43:33;18.98;;;11.50;;
77164;SDS011;66140;50.280;18.660;2023-03-20T10:48:51;18.63;;;11.48;;
77164;SDS011;66140;50.280;18.660;2023-03-20T10:51:29;21.40;;;11.52;;
77164;SDS011;66140;50.280;18.660;2023-03-20T10:54:07;17.55;;;11.20;;
77164;SDS011;66140;50.280;18.660;2023-03-20T10:56:48;18.80;;;11.88;;
77164;SDS011;66140;50.280;18.660;2023-03-20T11:02:14;16.92;;;10.32;;
77164;SDS011;66140;50.280;18.660;2023-03-20T11:04:41;17.48;;;11.07;;
77164;SDS011;66140;50.280;18.660;2023-03-20T11:09:32;19.13;;;11.03;;
77164;SDS011;66140;50.280;18.660;2023-03-20T11:11:59;18.38;;;12.18;;
77164;SDS011;66140;50.280;18.660;2023-03-20T11:16:56;17.50;;;10.60;;
77164;SDS011;66140;50.280;18.660;2023-03-20T11:19:26;15.63;;;10.70;;
77164;SDS011;66140;50.280;18.660;2023-03-20T11:21:52;16.75;;;9.73;;
77164;SDS011;66140;50.280;18.660;2023-03-20T11:24:36;17.92;;;10.88;;
77164;SDS011;66140;50.280;18.660;2023-03-20T11:27:07;16.05;;;9.98;;
77164;SDS011;66140;50.280;18.660;2023-03-20T11:29:35;18.58;;;11.48;;
77164;SDS011;66140;50.280;18.660;2023-03-20T11:32:05;20.67;;;11.27;;
77164;SDS011;66140;50.280;18.660;2023-03-20T11:34:37;16.92;;;10.55;;
77164;SDS011;66140;50.280;18.660;2023-03-20T11:37:06;19.77;;;11.10;;
77164;SDS011;66140;50.280;18.660;2023-03-20T11:40:30;18.65;;;9.95;;
77164;SDS011;66140;50.280;18.660;2023-03-20T11:42:36;13.88;;;9.65;;
77164;SDS011;66140;50.280;18.660;2023-03-20T11:45:14;13.48;;;9.25;;
77164;SDS011;66140;50.280;18.660;2023-03-20T11:47:41;14.10;;;9.13;;
77164;SDS011;66140;50.280;18.660;2023-03-20T11:53:02;21.98;;;10.98;;
77164;SDS011;66140;50.280;18.660;2023-03-20T11:55:45;21.52;;;9.88;;
77164;SDS011;66140;50.280;18.660;2023-03-20T11:58:27;16.13;;;9.73;;
77164;SDS011;66140;50.280;18.660;2023-03-20T12:00:54;16.52;;;11.38;;
77164;SDS011;66140;50.280;18.660;2023-03-20T12:06:12;18.73;;;12.32;;
77164;SDS011;66140;50.280;18.660;2023-03-20T12:08:45;17.65;;;10.68;;
77164;SDS011;66140;50.280;18.660;2023-03-20T12:11:30;18.88;;;11.52;;
77164;SDS011;66140;50.280;18.660;2023-03-20T12:14:05;19.20;;;11.85;;
77164;SDS011;66140;50.280;18.660;2023-03-20T12:16:36;19.35;;;11.55;;
77164;SDS011;66140;50.280;18.660;2023-03-20T12:19:04;19.65;;;12.57;;
77164;SDS011;66140;50.280;18.660;2023-03-20T12:21:43;19.92;;;13.82;;
77164;SDS011;66140;50.280;18.660;2023-03-20T12:29:46;21.40;;;15.10;;
77164;SDS011;66140;50.280;18.660;2023-03-20T12:32:23;19.83;;;12.85;;
77164;SDS011;66140;50.280;18.660;2023-03-20T12:34:51;18.02;;;12.00;;
77164;SDS011;66140;50.280;18.660;2023-03-20T12:37:22;19.40;;;13.30;;
77164;SDS011;66140;50.280;18.660;2023-03-20T12:42:17;16.70;;;12.37;;
77164;SDS011;66140;50.280;18.660;2023-03-20T12:56:11;21.73;;;14.80;;
77164;SDS011;66140;50.280;18.660;2023-03-20T13:01:29;24.67;;;15.43;;
77164;SDS011;66140;50.280;18.660;2023-03-20T13:06:52;25.88;;;16.52;;
77164;SDS011;66140;50.280;18.660;2023-03-20T13:17:13;26.02;;;17.48;;
77164;SDS011;66140;50.280;18.660;2023-03-20T13:37:27;22.30;;;15.63;;
77164;SDS011;66140;50.280;18.660;2023-03-20T13:40:34;25.13;;;15.57;;
77164;SDS011;66140;50.280;18.660;2023-03-20T13:45:44;26.15;;;17.10;;
77164;SDS011;66140;50.280;18.660;2023-03-20T13:48:23;29.75;;;17.27;;
77164;SDS011;66140;50.280;18.660;2023-03-20T13:56:21;24.23;;;14.02;;
77164;SDS011;66140;50.280;18.660;2023-03-20T14:01:53;26.05;;;14.95;;
77164;SDS011;66140;50.280;18.660;2023-03-20T14:04:29;25.45;;;15.57;;
77164;SDS011;66140;50.280;18.660;2023-03-20T14:06:57;30.17;;;16.17;;
77164;SDS011;66140;50.280;18.660;2023-03-20T14:09:33;27.25;;;16.48;;
77164;SDS011;66140;50.280;18.660;2023-03-20T14:12:04;26.77;;;16.85;;
77164;SDS011;66140;50.280;18.660;2023-03-20T14:17:26;27.15;;;16.88;;
77164;SDS011;66140;50.280;18.660;2023-03-20T14:19:54;23.40;;;15.73;;
77164;SDS011;66140;50.280;18.660;2023-03-20T14:24:59;27.55;;;16.45;;
77164;SDS011;66140;50.280;18.660;2023-03-20T14:27:33;28.23;;;17.77;;
77164;SDS011;66140;50.280;18.660;2023-03-20T14:32:58;31.58;;;17.77;;
77164;SDS011;66140;50.280;18.660;2023-03-20T14:35:27;31.50;;;17.55;;
77164;SDS011;66140;50.280;18.660;2023-03-20T14:41:00;26.55;;;17.00;;
77164;SDS011;66140;50.280;18.660;2023-03-20T14:51:57;31.75;;;16.67;;
77164;SDS011;66140;50.280;18.660;2023-03-20T14:54:53;26.92;;;17.05;;
77164;SDS011;66140;50.280;18.660;2023-03-20T14:57:29;27.15;;;17.02;;
77164;SDS011;66140;50.280;18.660;2023-03-20T14:59:57;25.70;;;16.95;;
77164;SDS011;66140;50.280;18.660;2023-03-20T15:02:26;29.00;;;16.60;;
77164;SDS011;66140;50.280;18.660;2023-03-20T15:04:55;25.55;;;16.45;;
77164;SDS011;66140;50.280;18.660;2023-03-20T15:07:22;23.23;;;15.63;;
77164;SDS011;66140;50.280;18.660;2023-03-20T15:09:52;23.60;;;16.65;;
77164;SDS011;66140;50.280;18.660;2023-03-20T15:12:20;22.83;;;15.13;;
77164;SDS011;66140;50.280;18.660;2023-03-20T15:14:58;24.58;;;16.00;;
77164;SDS011;66140;50.280;18.660;2023-03-20T15:17:27;22.98;;;16.25;;
77164;SDS011;66140;50.280;18.660;2023-03-20T15:22:46;23.88;;;16.08;;
77164;SDS011;66140;50.280;18.660;2023-03-20T15:25:16;29.13;;;16.83;;
77164;SDS011;66140;50.280;18.660;2023-03-20T15:27:43;28.00;;;17.23;;
77164;SDS011;66140;50.280;18.660;2023-03-20T15:30:10;23.73;;;16.00;;
77164;SDS011;66140;50.280;18.660;2023-03-20T15:32:39;28.05;;;16.95;;
77164;SDS011;66140;50.280;18.660;2023-03-20T15:35:09;30.15;;;16.98;;
77164;SDS011;66140;50.280;18.660;2023-03-20T15:37:47;28.75;;;17.08;;
77164;SDS011;66140;50.280;18.660;2023-03-20T15:40:25;28.33;;;17.20;;
77164;SDS011;66140;50.280;18.660;2023-03-20T15:45:45;27.30;;;18.23;;
77164;SDS011;66140;50.280;18.660;2023-03-20T15:48:15;23.23;;;15.98;;
77164;SDS011;66140;50.280;18.660;2023-03-20T15:50:47;27.02;;;16.73;;
77164;SDS011;66140;50.280;18.660;2023-03-20T15:55:49;25.67;;;15.65;;
77164;SDS011;66140;50.280;18.660;2023-03-20T15:58:17;26.83;;;16.85;;
77164;SDS011;66140;50.280;18.660;2023-03-20T16:00:44;25.17;;;16.30;;
77164;SDS011;66140;50.280;18.660;2023-03-20T16:03:15;27.10;;;17.25;;
77164;SDS011;66140;50.280;18.660;2023-03-20T16:05:43;25.25;;;15.38;;
77164;SDS011;66140;50.280;18.660;2023-03-20T16:10:39;24.65;;;15.18;;
77164;SDS011;66140;50.280;18.660;2023-03-20T16:13:09;22.40;;;15.43;;
77164;SDS011;66140;50.280;18.660;2023-03-20T16:15:37;27.80;;;16.67;;
77164;SDS011;66140;50.280;18.660;2023-03-20T16:18:04;24.35;;;15.73;;
77164;SDS011;66140;50.280;18.660;2023-03-20T16:20:32;29.15;;;16.40;;
77164;SDS011;66140;50.280;18.660;2023-03-20T16:23:03;24.42;;;15.55;;
77164;SDS011;66140;50.280;18.660;2023-03-20T16:25:31;27.73;;;16.27;;
77164;SDS011;66140;50.280;18.660;2023-03-20T16:27:59;29.13;;;18.35;;
77164;SDS011;66140;50.280;18.660;2023-03-20T16:30:26;32.40;;;19.50;;
77164;SDS011;66140;50.280;18.660;2023-03-20T16:32:59;62.10;;;32.42;;
77164;SDS011;66140;50.280;18.660;2023-03-20T16:35:31;72.38;;;36.88;;
77164;SDS011;66140;50.280;18.660;2023-03-20T16:38:13;73.75;;;36.83;;
77164;SDS011;66140;50.280;18.660;2023-03-20T16:40:40;50.47;;;27.83;;
77164;SDS011;66140;50.280;18.660;2023-03-20T16:43:16;43.88;;;24.60;;
77164;SDS011;66140;50.280;18.660;2023-03-20T16:45:45;35.40;;;19.88;;
77164;SDS011;66140;50.280;18.660;2023-03-20T16:50:41;33.67;;;19.93;;
77164;SDS011;66140;50.280;18.660;2023-03-20T16:53:11;39.72;;;23.75;;
77164;SDS011;66140;50.280;18.660;2023-03-20T16:55:45;46.58;;;24.50;;
77164;SDS011;66140;50.280;18.660;2023-03-20T16:58:22;56.22;;;27.65;;
77164;SDS011;66140;50.280;18.660;2023-03-20T17:01:01;51.85;;;26.58;;
77164;SDS011;66140;50.280;18.660;2023-03-20T17:03:45;46.75;;;26.15;;
77164;SDS011;66140;50.280;18.660;2023-03-20T17:08:49;57.53;;;29.27;;
77164;SDS011;66140;50.280;18.660;2023-03-20T17:11:37;49.50;;;24.42;;
77164;SDS011;66140;50.280;18.660;2023-03-20T17:14:02;44.85;;;24.63;;
77164;SDS011;66140;50.280;18.660;2023-03-20T17:16:29;47.00;;;24.10;;
77164;SDS011;66140;50.280;18.660;2023-03-20T17:21:27;33.95;;;20.75;;
77164;SDS011;66140;50.280;18.660;2023-03-20T17:23:55;33.95;;;18.65;;
77164;SDS011;66140;50.280;18.660;2023-03-20T17:26:20;30.27;;;19.55;;
77164;SDS011;66140;50.280;18.660;2023-03-20T17:28:51;39.40;;;20.08;;
77164;SDS011;66140;50.280;18.660;2023-03-20T17:31:17;50.28;;;27.23;;
77164;SDS011;66140;50.280;18.660;2023-03-20T17:33:43;45.25;;;24.58;;
77164;SDS011;66140;50.280;18.660;2023-03-20T17:38:41;24.45;;;14.05;;
77164;SDS011;66140;50.280;18.660;2023-03-20T17:41:08;17.98;;;10.35;;
77164;SDS011;66140;50.280;18.660;2023-03-20T17:43:38;16.35;;;9.15;;
77164;SDS011;66140;50.280;18.660;2023-03-20T17:46:03;16.45;;;8.88;;
77164;SDS011;66140;50.280;18.660;2023-03-20T17:48:29;12.95;;;7.57;;
77164;SDS011;66140;50.280;18.660;2023-03-20T17:50:54;11.07;;;7.38;;
77164;SDS011;66140;50.280;18.660;2023-03-20T17:53:21;12.25;;;7.05;;
77164;SDS011;66140;50.280;18.660;2023-03-20T17:55:49;11.65;;;7.40;;
77164;SDS011;66140;50.280;18.660;2023-03-20T17:58:16;10.32;;;6.97;;
77164;SDS011;66140;50.280;18.660;2023-03-20T18:00:45;10.13;;;6.82;;
77164;SDS011;66140;50.280;18.660;2023-03-20T18:03:10;11.00;;;7.05;;
77164;SDS011;66140;50.280;18.660;2023-03-20T18:05:36;14.05;;;7.32;;
77164;SDS011;66140;50.280;18.660;2023-03-20T18:08:04;13.43;;;7.75;;
77164;SDS011;66140;50.280;18.660;2023-03-20T18:10:31;14.73;;;8.30;;
77164;SDS011;66140;50.280;18.660;2023-03-20T18:12:57;13.23;;;8.10;;
77164;SDS011;66140;50.280;18.660;2023-03-20T18:15:23;14.82;;;9.00;;
77164;SDS011;66140;50.280;18.660;2023-03-20T18:17:49;13.68;;;8.52;;
77164;SDS011;66140;50.280;18.660;2023-03-20T18:20:28;11.88;;;7.90;;
77164;SDS011;66140;50.280;18.660;2023-03-20T18:22:55;11.73;;;7.68;;
77164;SDS011;66140;50.280;18.660;2023-03-20T18:25:21;14.10;;;8.05;;
77164;SDS011;66140;50.280;18.660;2023-03-20T18:27:49;15.73;;;8.65;;
77164;SDS011;66140;50.280;18.660;2023-03-20T18:30:17;12.43;;;7.85;;
77164;SDS011;66140;50.280;18.660;2023-03-20T18:32:45;14.43;;;7.57;;
77164;SDS011;66140;50.280;18.660;2023-03-20T18:35:11;12.63;;;7.88;;
77164;SDS011;66140;50.280;18.660;2023-03-20T18:37:40;13.63;;;8.60;;
77164;SDS011;66140;50.280;18.660;2023-03-20T18:40:22;13.35;;;8.30;;
77164;SDS011;66140;50.280;18.660;2023-03-20T18:42:50;17.52;;;9.70;;
77164;SDS011;66140;50.280;18.660;2023-03-20T18:45:17;16.95;;;9.32;;
77164;SDS011;66140;50.280;18.660;2023-03-20T18:47:43;15.65;;;9.27;;
77164;SDS011;66140;50.280;18.660;2023-03-20T18:50:23;17.27;;;9.82;;
77164;SDS011;66140;50.280;18.660;2023-03-20T18:52:57;15.18;;;9.32;;
77164;SDS011;66140;50.280;18.660;2023-03-20T18:55:24;14.52;;;8.75;;
77164;SDS011;66140;50.280;18.660;2023-03-20T19:00:18;16.73;;;8.52;;
77164;SDS011;66140;50.280;18.660;2023-03-20T19:02:47;17.15;;;9.18;;
77164;SDS011;66140;50.280;18.660;2023-03-20T19:05:14;17.13;;;9.18;;
77164;SDS011;66140;50.280;18.660;2023-03-20T19:07:41;16.30;;;11.45;;
77164;SDS011;66140;50.280;18.660;2023-03-20T19:10:41;16.92;;;10.43;;
77164;SDS011;66140;50.280;18.660;2023-03-20T19:13:01;15.95;;;10.27;;
77164;SDS011;66140;50.280;18.660;2023-03-20T19:15:28;15.63;;;10.27;;
77164;SDS011;66140;50.280;18.660;2023-03-20T19:17:59;15.88;;;10.10;;
77164;SDS011;66140;50.280;18.660;2023-03-20T19:20:39;19.92;;;11.98;;
77164;SDS011;66140;50.280;18.660;2023-03-20T19:23:08;20.77;;;12.00;;
77164;SDS011;66140;50.280;18.660;2023-03-20T19:25:37;19.23;;;12.25;;
77164;SDS011;66140;50.280;18.660;2023-03-20T19:28:04;20.85;;;12.82;;
77164;SDS011;66140;50.280;18.660;2023-03-20T19:30:32;22.95;;;13.23;;
77164;SDS011;66140;50.280;18.660;2023-03-20T19:32:59;21.85;;;13.05;;
77164;SDS011;66140;50.280;18.660;2023-03-20T19:35:26;20.83;;;11.70;;
77164;SDS011;66140;50.280;18.660;2023-03-20T19:37:52;21.23;;;12.93;;
77164;SDS011;66140;50.280;18.660;2023-03-20T19:43:19;31.23;;;17.17;;
77164;SDS011;66140;50.280;18.660;2023-03-20T19:45:46;40.50;;;21.35;;
77164;SDS011;66140;50.280;18.660;2023-03-20T19:48:22;37.03;;;20.10;;
77164;SDS011;66140;50.280;18.660;2023-03-20T19:50:50;40.38;;;20.88;;
77164;SDS011;66140;50.280;18.660;2023-03-20T19:53:17;38.13;;;19.58;;
77164;SDS011;66140;50.280;18.660;2023-03-20T19:55:49;28.05;;;17.23;;
77164;SDS011;66140;50.280;18.660;2023-03-20T19:58:15;22.83;;;13.95;;
77164;SDS011;66140;50.280;18.660;2023-03-20T20:00:41;21.40;;;13.48;;
77164;SDS011;66140;50.280;18.660;2023-03-20T20:03:10;21.05;;;13.38;;
77164;SDS011;66140;50.280;18.660;2023-03-20T20:08:07;22.20;;;12.27;;
77164;SDS011;66140;50.280;18.660;2023-03-20T20:10:36;25.50;;;12.63;;
77164;SDS011;66140;50.280;18.660;2023-03-20T20:15:37;22.40;;;13.23;;
77164;SDS011;66140;50.280;18.660;2023-03-20T20:18:03;24.40;;;14.27;;
77164;SDS011;66140;50.280;18.660;2023-03-20T20:20:28;28.33;;;15.88;;
77164;SDS011;66140;50.280;18.660;2023-03-20T20:22:54;26.70;;;15.55;;
77164;SDS011;66140;50.280;18.660;2023-03-20T20:25:19;26.75;;;14.73;;
77164;SDS011;66140;50.280;18.660;2023-03-20T20:27:45;28.45;;;15.90;;
77164;SDS011;66140;50.280;18.660;2023-03-20T20:30:12;25.00;;;14.35;;
77164;SDS011;66140;50.280;18.660;2023-03-20T20:32:42;24.65;;;13.65;;
77164;SDS011;66140;50.280;18.660;2023-03-20T20:35:08;23.73;;;14.48;;
77164;SDS011;66140;50.280;18.660;2023-03-20T20:37:34;23.95;;;15.10;;
77164;SDS011;66140;50.280;18.660;2023-03-20T20:40:02;26.02;;;14.48;;
77164;SDS011;66140;50.280;18.660;2023-03-20T20:42:28;27.13;;;15.45;;
77164;SDS011;66140;50.280;18.660;2023-03-20T20:44:54;28.85;;;17.98;;
77164;SDS011;66140;50.280;18.660;2023-03-20T20:47:19;29.80;;;17.58;;
77164;SDS011;66140;50.280;18.660;2023-03-20T20:49:45;32.65;;;19.45;;
77164;SDS011;66140;50.280;18.660;2023-03-20T20:52:11;33.90;;;19.10;;
77164;SDS011;66140;50.280;18.660;2023-03-20T20:54:37;31.67;;;18.35;;
77164;SDS011;66140;50.280;18.660;2023-03-20T20:57:05;32.45;;;16.92;;
77164;SDS011;66140;50.280;18.660;2023-03-20T20:59:32;32.92;;;16.10;;
77164;SDS011;66140;50.280;18.660;2023-03-20T21:02:01;34.83;;;16.15;;
77164;SDS011;66140;50.280;18.660;2023-03-20T21:04:27;29.00;;;15.77;;
77164;SDS011;66140;50.280;18.660;2023-03-20T21:06:52;23.45;;;12.93;;
77164;SDS011;66140;50.280;18.660;2023-03-20T21:09:18;23.73;;;13.40;;
77164;SDS011;66140;50.280;18.660;2023-03-20T21:11:43;21.90;;;13.55;;
77164;SDS011;66140;50.280;18.660;2023-03-20T21:14:09;27.08;;;14.10;;
77164;SDS011;66140;50.280;18.660;2023-03-20T21:16:35;24.95;;;13.75;;
77164;SDS011;66140;50.280;18.660;2023-03-20T21:19:00;28.17;;;15.10;;
77164;SDS011;66140;50.280;18.660;2023-03-20T21:21:25;27.17;;;14.05;;
77164;SDS011;66140;50.280;18.660;2023-03-20T21:23:51;23.85;;;14.02;;
77164;SDS011;66140;50.280;18.660;2023-03-20T21:26:16;26.20;;;15.13;;
77164;SDS011;66140;50.280;18.660;2023-03-20T21:28:42;26.80;;;14.77;;
77164;SDS011;66140;50.280;18.660;2023-03-20T21:31:08;22.23;;;13.32;;
77164;SDS011;66140;50.280;18.660;2023-03-20T21:33:34;28.65;;;14.65;;
77164;SDS011;66140;50.280;18.660;2023-03-20T21:36:01;29.50;;;15.68;;
77164;SDS011;66140;50.280;18.660;2023-03-20T21:38:27;29.08;;;14.75;;
77164;SDS011;66140;50.280;18.660;2023-03-20T21:41:01;26.95;;;14.23;;
77164;SDS011;66140;50.280;18.660;2023-03-20T21:43:30;28.73;;;13.63;;
77164;SDS011;66140;50.280;18.660;2023-03-20T21:45:56;24.50;;;13.85;;
77164;SDS011;66140;50.280;18.660;2023-03-20T21:48:21;28.85;;;14.15;;
77164;SDS011;66140;50.280;18.660;2023-03-20T21:50:47;28.45;;;14.02;;
77164;SDS011;66140;50.280;18.660;2023-03-20T21:53:13;31.05;;;15.48;;
77164;SDS011;66140;50.280;18.660;2023-03-20T21:55:39;30.35;;;14.23;;